Time;durP1;ratioP1;P1;durP2;ratioP2;P2;SDS_P1;SDS_P2;PMS_P1;PMS_P2;Temp;Humidity;BMP_temperature;BMP_pressure;BME280_temperature;BME280_humidity;BME280_pressure;Samples;Min_cycle;Max_cycle;Signal;HPM_P1;HPM_P2
2023/08/18 00:02:20;;;;;;;4.13;3.47;;;20.70;93.60;;;;;;10352633;28;21113;-66
2023/08/18 00:07:21;;;;;;;4.30;3.63;;;20.80;93.60;;;;;;10345754;28;20459;-65
2023/08/18 00:12:21;;;;;;;4.47;3.80;;;20.70;93.60;;;;;;10344468;28;20409;-65
2023/08/18 00:17:22;;;;;;;5.40;3.80;;;20.70;93.60;;;;;;10360624;28;20400;-65
2023/08/18 00:22:22;;;;;;;4.78;3.63;;;20.70;93.60;;;;;;10368553;28;20412;-65
2023/08/18 00:27:23;;;;;;;4.20;3.65;;;20.70;93.50;;;;;;10367336;28;21171;-65
2023/08/18 00:32:24;;;;;;;4.03;3.63;;;20.70;93.50;;;;;;10355011;28;20419;-65
2023/08/18 00:37:24;;;;;;;4.55;3.78;;;20.70;93.50;;;;;;10366607;28;20407;-66
2023/08/18 00:42:25;;;;;;;4.50;3.60;;;20.80;93.60;;;;;;10368254;28;20404;-65
2023/08/18 00:47:26;;;;;;;5.82;4.95;;;20.70;93.60;;;;;;10368324;28;20424;-66
2023/08/18 00:52:26;;;;;;;4.90;3.83;;;20.70;93.50;;;;;;10366884;28;20437;-64
2023/08/18 00:57:27;;;;;;;4.82;4.05;;;20.70;93.50;;;;;;10365850;28;20428;-64
2023/08/18 01:02:28;;;;;;;5.50;4.07;;;20.60;93.50;;;;;;10365782;28;21015;-63
2023/08/18 01:07:29;;;;;;;5.18;3.88;;;20.60;93.50;;;;;;10363738;28;20547;-65
2023/08/18 01:12:42;;;;;;;4.88;4.15;;;20.50;93.50;;;;;;10369006;28;20966;-65
2023/08/18 01:17:45;;;;;;;4.72;4.00;;;20.60;93.50;;;;;;10361317;28;20405;-64
2023/08/18 01:23:07;;;;;;;5.65;4.53;;;20.60;93.50;;;;;;10365387;28;20575;-65
2023/08/18 01:28:08;;;;;;;4.80;4.00;;;20.60;93.50;;;;;;10362529;28;20441;-65
2023/08/18 01:33:20;;;;;;;5.23;4.30;;;20.60;93.50;;;;;;10364861;28;20543;-65
2023/08/18 01:38:24;;;;;;;5.60;4.18;;;20.60;93.40;;;;;;10361535;28;20437;-64
2023/08/18 01:43:26;;;;;;;5.50;4.72;;;20.60;93.50;;;;;;10362384;28;20599;-66
2023/08/18 01:48:27;;;;;;;6.60;4.40;;;20.60;93.40;;;;;;10363413;28;20408;-65
2023/08/18 01:53:28;;;;;;;5.30;4.35;;;20.50;93.40;;;;;;10348532;28;20451;-66
2023/08/18 01:58:28;;;;;;;5.37;4.30;;;20.50;93.40;;;;;;10359369;28;20779;-65
2023/08/18 02:03:29;;;;;;;5.27;4.40;;;20.50;93.40;;;;;;10361251;28;20460;-65
2023/08/18 02:08:30;;;;;;;6.63;4.63;;;20.50;93.40;;;;;;10361499;28;20491;-64
2023/08/18 02:13:33;;;;;;;7.18;4.97;;;20.50;93.40;;;;;;10360485;28;20421;-65
2023/08/18 02:18:34;;;;;;;5.60;4.57;;;20.50;93.50;;;;;;10358190;28;20409;-66
2023/08/18 02:23:34;;;;;;;7.45;4.82;;;20.50;93.40;;;;;;10361247;28;20399;-65
2023/08/18 02:28:35;;;;;;;6.07;4.53;;;20.50;93.40;;;;;;10361160;28;20405;-66
2023/08/18 02:33:36;;;;;;;6.00;4.50;;;20.50;93.40;;;;;;10346513;28;20955;-66
2023/08/18 02:38:37;;;;;;;5.67;4.70;;;20.50;93.40;;;;;;10341605;28;20408;-65
2023/08/18 02:43:38;;;;;;;5.60;4.60;;;20.50;93.40;;;;;;10360473;28;20905;-64
2023/08/18 02:48:39;;;;;;;7.35;4.60;;;20.40;93.30;;;;;;10359396;28;20401;-65
2023/08/18 02:53:39;;;;;;;5.90;4.80;;;20.40;93.40;;;;;;10360768;28;20436;-65
2023/08/18 02:58:40;;;;;;;6.23;5.13;;;20.40;93.30;;;;;;10369995;28;20944;-62
2023/08/18 03:03:41;;;;;;;6.67;5.43;;;20.40;93.40;;;;;;10364771;28;20406;-65
2023/08/18 03:08:41;;;;;;;6.10;5.00;;;20.40;93.30;;;;;;10366464;28;20492;-65
2023/08/18 03:13:42;;;;;;;6.30;4.93;;;20.40;93.60;;;;;;10366340;28;20474;-65
2023/08/18 03:18:43;;;;;;;6.43;5.00;;;20.40;93.30;;;;;;10365356;28;20491;-66
2023/08/18 03:23:43;;;;;;;5.50;5.00;;;20.40;93.30;;;;;;10360495;28;20403;-66
2023/08/18 03:28:44;;;;;;;6.17;4.83;;;20.40;93.30;;;;;;10367867;28;21133;-65
2023/08/18 03:33:44;;;;;;;7.37;5.80;;;20.40;93.30;;;;;;10367006;28;20401;-65
2023/08/18 03:38:45;;;;;;;5.80;4.93;;;20.40;93.30;;;;;;10359811;28;20399;-65
2023/08/18 03:43:46;;;;;;;6.13;5.03;;;20.40;93.30;;;;;;10346763;28;21088;-65
2023/08/18 03:48:46;;;;;;;6.27;5.40;;;20.40;93.30;;;;;;10363157;28;20390;-65
2023/08/18 03:53:47;;;;;;;5.43;4.93;;;20.40;93.30;;;;;;10361121;28;20497;-65
2023/08/18 03:58:48;;;;;;;6.90;6.17;;;20.40;93.30;;;;;;10362785;28;20415;-65
2023/08/18 04:03:48;;;;;;;6.23;5.20;;;20.40;93.30;;;;;;10363351;28;20407;-65
2023/08/18 04:09:06;;;;;;;6.20;5.40;;;20.40;93.30;;;;;;10342888;28;20405;-66
2023/08/18 04:14:06;;;;;;;6.00;5.40;;;20.30;93.30;;;;;;10362243;28;20481;-65
2023/08/18 04:19:07;;;;;;;6.70;5.37;;;20.30;93.30;;;;;;10358113;28;20476;-64
2023/08/18 04:24:08;;;;;;;6.40;5.80;;;20.30;93.30;;;;;;10360984;28;20411;-66
2023/08/18 04:29:08;;;;;;;7.23;5.83;;;20.30;93.30;;;;;;10360028;28;21193;-65
2023/08/18 04:34:09;;;;;;;6.20;5.53;;;20.30;93.30;;;;;;10355299;28;20397;-65
2023/08/18 04:39:11;;;;;;;6.47;5.67;;;20.30;93.30;;;;;;10346795;28;20830;-66
2023/08/18 04:44:11;;;;;;;6.73;5.40;;;20.30;93.30;;;;;;10365529;28;20411;-66
2023/08/18 04:49:12;;;;;;;6.20;5.60;;;20.30;93.30;;;;;;10347415;28;20411;-65
2023/08/18 04:54:13;;;;;;;5.83;5.23;;;20.30;93.40;;;;;;10356634;28;20408;-65
2023/08/18 04:59:13;;;;;;;6.25;5.65;;;20.30;93.40;;;;;;10358427;28;20456;-63
2023/08/18 05:04:14;;;;;;;6.87;6.17;;;20.30;93.30;;;;;;10365411;28;20943;-65
2023/08/18 05:09:14;;;;;;;6.90;5.97;;;20.30;93.40;;;;;;10368229;28;21056;-65
2023/08/18 05:14:15;;;;;;;6.97;5.72;;;20.40;93.40;;;;;;10363222;28;20462;-65
2023/08/18 05:19:16;;;;;;;7.47;5.95;;;20.30;93.40;;;;;;10362182;28;20423;-65
2023/08/18 05:24:16;;;;;;;7.57;6.20;;;20.30;93.40;;;;;;10364149;28;20463;-65
2023/08/18 05:29:17;;;;;;;6.32;5.70;;;20.30;93.40;;;;;;10363152;28;20403;-65
2023/08/18 05:34:17;;;;;;;6.68;5.97;;;20.30;93.40;;;;;;10366980;28;20433;-65
2023/08/18 05:39:18;;;;;;;7.45;6.22;;;20.30;93.40;;;;;;10362475;28;20856;-65
2023/08/18 05:44:19;;;;;;;7.68;6.40;;;20.30;93.40;;;;;;10362975;28;20443;-65
2023/08/18 05:49:19;;;;;;;6.97;6.15;;;20.30;93.40;;;;;;10362283;28;20420;-65
2023/08/18 05:54:20;;;;;;;7.32;6.53;;;20.30;93.40;;;;;;10365021;28;20873;-65
2023/08/18 05:59:21;;;;;;;7.20;6.00;;;20.20;93.40;;;;;;10363203;28;20414;-65
2023/08/18 06:04:22;;;;;;;6.93;6.18;;;20.30;93.40;;;;;;10349771;28;20423;-65
2023/08/18 06:09:22;;;;;;;6.90;6.20;;;20.20;93.40;;;;;;10364268;28;20438;-65
2023/08/18 06:14:23;;;;;;;7.25;6.35;;;20.20;93.40;;;;;;10358746;28;20880;-65
2023/08/18 06:19:24;;;;;;;6.25;5.65;;;20.30;93.40;;;;;;10361249;28;20408;-65
2023/08/18 06:24:24;;;;;;;8.73;6.32;;;20.30;93.40;;;;;;10350614;28;20424;-65
2023/08/18 06:29:25;;;;;;;6.80;6.10;;;20.30;93.40;;;;;;10361541;28;20404;-65
2023/08/18 06:34:26;;;;;;;6.72;6.00;;;20.30;93.40;;;;;;10358153;28;20495;-65
2023/08/18 06:39:26;;;;;;;6.80;6.10;;;20.30;93.40;;;;;;10360223;28;20507;-66
2023/08/18 06:44:27;;;;;;;7.45;6.10;;;20.30;93.40;;;;;;10359090;28;20450;-65
2023/08/18 06:49:27;;;;;;;7.28;5.90;;;20.30;93.40;;;;;;10357460;28;20777;-66
2023/08/18 06:54:28;;;;;;;6.57;5.93;;;20.30;93.40;;;;;;10358277;28;20419;-67
2023/08/18 06:59:29;;;;;;;7.30;6.03;;;20.30;93.40;;;;;;10359091;28;20844;-65
2023/08/18 07:04:29;;;;;;;6.97;6.27;;;20.30;93.40;;;;;;10345006;28;20421;-66
2023/08/18 07:09:30;;;;;;;7.07;5.87;;;20.30;93.40;;;;;;10357167;28;20411;-64
2023/08/18 07:14:31;;;;;;;6.43;5.83;;;20.30;93.40;;;;;;10359835;28;20499;-63
2023/08/18 07:19:31;;;;;;;8.20;6.50;;;20.40;93.40;;;;;;10348393;28;20406;-63
2023/08/18 07:24:32;;;;;;;7.80;6.27;;;20.40;93.40;;;;;;10363200;28;20411;-65
2023/08/18 07:29:34;;;;;;;8.40;6.47;;;20.40;93.30;;;;;;10357318;28;21728;-65
2023/08/18 07:34:34;;;;;;;6.80;6.10;;;20.40;93.30;;;;;;10357996;28;20412;-64
2023/08/18 07:39:35;;;;;;;7.03;6.20;;;20.40;93.30;;;;;;10357370;28;20900;-65
2023/08/18 07:44:35;;;;;;;6.90;6.20;;;20.40;93.30;;;;;;10357095;28;20429;-63
2023/08/18 07:49:36;;;;;;;8.33;6.00;;;20.40;93.30;;;;;;10353538;28;20417;-65
2023/08/18 07:54:37;;;;;;;7.10;6.37;;;20.40;93.30;;;;;;10356914;28;20409;-63
2023/08/18 07:59:37;;;;;;;7.43;6.27;;;20.40;93.30;;;;;;10354496;28;20752;-65
2023/08/18 08:04:38;;;;;;;6.23;5.60;;;20.40;93.30;;;;;;10357390;28;20413;-64
2023/08/18 08:09:40;;;;;;;6.93;6.13;;;20.40;93.30;;;;;;10358496;28;20401;-64
2023/08/18 08:14:40;;;;;;;6.47;5.82;;;20.50;93.30;;;;;;10359572;28;20416;-64
2023/08/18 08:19:41;;;;;;;7.85;6.40;;;20.50;93.20;;;;;;10359086;28;20412;-64
2023/08/18 08:24:42;;;;;;;7.28;6.32;;;20.50;93.20;;;;;;10351380;28;20421;-62
2023/08/18 08:29:43;;;;;;;7.23;6.53;;;20.50;93.20;;;;;;10355680;28;20503;-65
2023/08/18 08:34:51;;;;;;;6.83;6.10;;;20.60;93.20;;;;;;10352559;28;20408;-64
2023/08/18 08:39:51;;;;;;;7.00;6.20;;;20.60;93.10;;;;;;10357529;28;20717;-65
2023/08/18 08:44:52;;;;;;;7.60;6.18;;;20.60;93.20;;;;;;10363843;28;20495;-65
2023/08/18 08:50:01;;;;;;;7.87;5.97;;;20.60;93.10;;;;;;10362689;28;20409;-65
2023/08/18 08:55:03;;;;;;;11.40;6.53;;;20.60;93.20;;;;;;10359534;28;20428;-67
2023/08/18 09:00:05;;;;;;;8.07;5.57;;;20.70;94.90;;;;;;10367034;28;20819;-66
2023/08/18 09:05:06;;;;;;;10.07;5.60;;;20.70;95.90;;;;;;10369758;28;20424;-67
2023/08/18 09:10:09;;;;;;;10.05;5.95;;;20.80;96.40;;;;;;10346534;28;20494;-66
2023/08/18 09:15:09;;;;;;;9.63;6.27;;;20.70;97.10;;;;;;10359598;28;20405;-67
2023/08/18 09:20:13;;;;;;;8.75;5.63;;;20.70;97.40;;;;;;10362347;28;20479;-66
2023/08/18 09:25:14;;;;;;;10.40;6.13;;;20.80;97.70;;;;;;10366107;28;20912;-66
2023/08/18 09:30:15;;;;;;;9.47;5.97;;;20.80;97.90;;;;;;10367202;28;20409;-67
2023/08/18 09:35:21;;;;;;;11.17;6.93;;;20.90;98.10;;;;;;10358661;28;20419;-67
2023/08/18 09:40:21;;;;;;;9.67;6.70;;;21.00;98.10;;;;;;10363441;28;20415;-67
2023/08/18 09:45:24;;;;;;;10.07;6.17;;;21.00;98.30;;;;;;10359737;28;20427;-66
2023/08/18 09:50:27;;;;;;;8.70;6.60;;;21.10;98.00;;;;;;10361380;28;20420;-66
2023/08/18 09:55:41;;;;;;;12.43;6.10;;;21.10;98.10;;;;;;10358408;28;20421;-66
2023/08/18 10:00:43;;;;;;;14.23;7.25;;;21.10;98.10;;;;;;10357896;28;20428;-67
2023/08/18 10:05:46;;;;;;;14.63;8.45;;;21.20;98.60;;;;;;10362986;28;20439;-67
2023/08/18 10:10:47;;;;;;;13.83;8.50;;;21.20;98.50;;;;;;10345441;28;20585;-67
2023/08/18 10:15:48;;;;;;;14.60;9.67;;;21.20;98.80;;;;;;10362341;28;20401;-66
2023/08/18 10:20:53;;;;;;;13.10;8.75;;;21.20;98.80;;;;;;10360879;28;20935;-66
2023/08/18 10:25:54;;;;;;;13.60;9.20;;;21.20;98.60;;;;;;10358372;28;20929;-66
2023/08/18 10:31:04;;;;;;;15.82;9.68;;;21.40;98.50;;;;;;10360159;28;20394;-66
2023/08/18 10:36:06;;;;;;;15.68;10.63;;;21.40;98.30;;;;;;10342208;28;20531;-67
2023/08/18 10:41:07;;;;;;;17.07;10.40;;;21.70;98.20;;;;;;10358854;28;20401;-65
2023/08/18 10:46:12;;;;;;;18.27;11.50;;;21.60;98.30;;;;;;10363155;28;20417;-67
2023/08/18 10:51:12;;;;;;;18.13;11.98;;;21.70;98.50;;;;;;10358661;28;20888;-67
2023/08/18 10:56:13;;;;;;;19.57;13.33;;;21.80;98.60;;;;;;10360073;28;20490;-67
2023/08/18 11:01:15;;;;;;;18.47;12.53;;;21.80;98.30;;;;;;10357684;28;20475;-65
2023/08/18 11:06:16;;;;;;;18.73;12.48;;;21.90;98.30;;;;;;10360204;28;20412;-66
2023/08/18 11:11:18;;;;;;;18.70;12.50;;;22.00;98.30;;;;;;10355307;28;20408;-67
2023/08/18 11:16:22;;;;;;;21.23;13.77;;;22.10;98.20;;;;;;10359822;28;20432;-66
2023/08/18 11:21:23;;;;;;;22.60;13.43;;;22.20;98.10;;;;;;10358676;28;20416;-66
2023/08/18 11:26:23;;;;;;;20.53;13.83;;;22.20;98.20;;;;;;10359605;28;20413;-66
2023/08/18 11:31:24;;;;;;;22.33;14.37;;;22.20;98.10;;;;;;10344317;28;20500;-66
2023/08/18 11:36:32;;;;;;;21.83;13.50;;;22.30;98.20;;;;;;10345157;28;20420;-68
2023/08/18 11:41:41;;;;;;;19.88;13.68;;;22.60;98.30;;;;;;10344095;28;20447;-69
2023/08/18 11:46:42;;;;;;;19.75;13.13;;;22.90;98.20;;;;;;10352530;28;20427;-68
2023/08/18 11:51:59;;;;;;;25.83;15.38;;;22.90;97.80;;;;;;10357680;28;20418;-67
2023/08/18 11:57:00;;;;;;;21.38;14.45;;;22.80;97.80;;;;;;10355509;28;20491;-69
2023/08/18 12:02:04;;;;;;;25.70;15.65;;;22.70;98.10;;;;;;10347360;28;20443;-67
2023/08/18 12:07:05;;;;;;;24.73;15.60;;;22.90;98.30;;;;;;10355447;28;20790;-69
2023/08/18 12:12:13;;;;;;;21.67;14.63;;;23.00;97.90;;;;;;10356561;28;20405;-70
2023/08/18 12:17:13;;;;;;;23.00;15.02;;;23.10;98.00;;;;;;10353866;28;20405;-69
2023/08/18 12:22:14;;;;;;;23.30;15.05;;;23.20;98.00;;;;;;10353012;28;20777;-70
2023/08/18 12:27:15;;;;;;;24.70;16.45;;;23.30;98.20;;;;;;10353497;28;20421;-68
2023/08/18 12:32:15;;;;;;;23.23;16.07;;;23.40;98.10;;;;;;10353533;28;20389;-68
2023/08/18 12:37:18;;;;;;;20.97;15.00;;;23.70;98.40;;;;;;10352946;28;20747;-67
2023/08/18 12:42:19;;;;;;;26.27;17.43;;;24.00;98.00;;;;;;10354410;28;20404;-69
2023/08/18 12:47:19;;;;;;;24.07;17.07;;;23.90;97.50;;;;;;10354319;28;20421;-68
2023/08/18 12:52:20;;;;;;;23.63;16.87;;;23.80;97.90;;;;;;10355982;28;20416;-69
2023/08/18 12:57:21;;;;;;;25.57;17.53;;;23.80;98.20;;;;;;10359378;28;20414;-70
2023/08/18 13:02:21;;;;;;;23.10;16.77;;;23.90;98.30;;;;;;10359882;28;20408;-70
2023/08/18 13:07:22;;;;;;;24.42;17.58;;;24.10;98.50;;;;;;10347860;28;20426;-69
2023/08/18 13:12:24;;;;;;;21.63;15.95;;;24.30;97.80;;;;;;10343445;28;20495;-68
2023/08/18 13:17:24;;;;;;;23.30;16.20;;;24.40;97.80;;;;;;10354887;28;20409;-68
2023/08/18 13:22:25;;;;;;;21.67;15.90;;;24.60;98.00;;;;;;10358328;28;20413;-67
2023/08/18 13:27:26;;;;;;;21.73;16.17;;;24.80;97.90;;;;;;10368228;28;20416;-69
2023/08/18 13:32:26;;;;;;;20.00;15.00;;;24.90;97.40;;;;;;10352787;28;20959;-68
2023/08/18 13:37:27;;;;;;;21.17;15.30;;;25.10;97.30;;;;;;10363321;28;20409;-67
2023/08/18 13:42:27;;;;;;;20.80;15.53;;;25.30;97.20;;;;;;10346503;28;20531;-68
2023/08/18 13:47:28;;;;;;;21.97;16.13;;;25.40;97.20;;;;;;10363134;28;20422;-69
2023/08/18 13:52:29;;;;;;;20.50;14.98;;;25.60;96.90;;;;;;10361853;28;20420;-69
2023/08/18 13:57:29;;;;;;;22.38;14.50;;;25.70;96.70;;;;;;10370840;28;20416;-70
2023/08/18 14:02:30;;;;;;;22.63;14.80;;;25.90;96.70;;;;;;10348209;28;20455;-68
2023/08/18 14:07:31;;;;;;;18.20;14.30;;;26.00;96.20;;;;;;10365329;28;20417;-67
2023/08/18 14:12:32;;;;;;;19.98;14.48;;;26.10;96.20;;;;;;10345171;28;20842;-68
2023/08/18 14:17:44;;;;;;;20.55;14.98;;;26.20;96.30;;;;;;10360579;28;20405;-68
2023/08/18 14:22:47;;;;;;;18.95;13.57;;;26.40;96.10;;;;;;10361791;28;20695;-68
2023/08/18 14:27:50;;;;;;;17.60;14.10;;;26.60;95.80;;;;;;10362285;28;20420;-69
2023/08/18 14:32:50;;;;;;;19.20;14.10;;;26.70;95.80;;;;;;10361613;28;20969;-68
2023/08/18 14:37:51;;;;;;;16.70;13.17;;;26.70;95.50;;;;;;10360021;28;20470;-68
2023/08/18 14:42:51;;;;;;;18.80;13.57;;;26.90;95.80;;;;;;10365425;28;20435;-69
2023/08/18 14:47:53;;;;;;;18.27;13.27;;;27.00;95.60;;;;;;10358729;28;20448;-69
2023/08/18 14:52:54;;;;;;;17.53;12.73;;;27.10;95.20;;;;;;10362898;28;20424;-69
2023/08/18 14:57:54;;;;;;;17.83;15.07;;;27.10;94.80;;;;;;10347672;28;20947;-69
2023/08/18 15:02:57;;;;;;;17.07;13.90;;;27.10;95.00;;;;;;10351675;28;20901;-68
2023/08/18 15:07:57;;;;;;;16.05;12.95;;;27.10;95.20;;;;;;10344485;28;20932;-69
2023/08/18 15:12:58;;;;;;;15.30;13.47;;;27.10;95.00;;;;;;10362288;28;20401;-68
2023/08/18 15:17:59;;;;;;;16.37;13.07;;;26.90;95.20;;;;;;10359194;28;20500;-69
2023/08/18 15:23:00;;;;;;;17.63;14.00;;;27.00;95.40;;;;;;10358818;28;20489;-68
2023/08/18 15:28:00;;;;;;;15.10;13.13;;;27.10;95.00;;;;;;10356296;28;20453;-69
2023/08/18 15:33:01;;;;;;;14.50;12.87;;;27.20;95.00;;;;;;10355596;28;20480;-69
2023/08/18 15:38:02;;;;;;;15.57;13.88;;;27.30;95.10;;;;;;10357407;28;20404;-69
2023/08/18 15:43:03;;;;;;;15.88;13.20;;;27.50;94.90;;;;;;10360269;28;21191;-69
2023/08/18 15:48:04;;;;;;;16.05;14.15;;;27.50;94.60;;;;;;10343760;28;20812;-69
2023/08/18 15:53:05;;;;;;;16.48;13.82;;;27.50;94.50;;;;;;10353829;28;20416;-68
2023/08/18 15:58:06;;;;;;;15.32;13.02;;;27.40;94.40;;;;;;10343581;28;20416;-69
2023/08/18 16:03:06;;;;;;;15.60;12.47;;;27.30;94.80;;;;;;10340897;28;20834;-69
2023/08/18 16:08:11;;;;;;;14.43;12.23;;;27.20;94.70;;;;;;10355152;28;20960;-69
2023/08/18 16:13:12;;;;;;;16.07;12.77;;;27.10;94.80;;;;;;10360488;28;20486;-69
2023/08/18 16:18:13;;;;;;;16.23;12.93;;;26.90;94.80;;;;;;10342867;28;20431;-69
2023/08/18 16:23:19;;;;;;;14.23;11.43;;;26.90;95.20;;;;;;10356004;28;21164;-70
2023/08/18 16:28:20;;;;;;;15.43;11.50;;;26.10;95.30;;;;;;10354939;28;20417;-69
2023/08/18 16:33:22;;;;;;;14.83;12.37;;;26.60;95.40;;;;;;10355010;28;20407;-69
2023/08/18 16:38:22;;;;;;;14.27;11.80;;;26.50;95.70;;;;;;10357369;28;20416;-69
2023/08/18 16:43:23;;;;;;;13.45;11.25;;;26.40;95.80;;;;;;10355062;28;20410;-69
2023/08/18 16:48:24;;;;;;;13.27;11.23;;;26.30;95.90;;;;;;10353385;28;20427;-69
2023/08/18 16:53:24;;;;;;;13.40;11.00;;;26.30;95.90;;;;;;10342518;28;20956;-69
2023/08/18 16:58:25;;;;;;;14.10;11.70;;;26.30;96.30;;;;;;10339592;28;20408;-69
2023/08/18 17:03:25;;;;;;;15.20;11.37;;;26.20;96.20;;;;;;10362781;28;20405;-69
2023/08/18 17:08:26;;;;;;;13.90;11.70;;;26.20;96.70;;;;;;10360654;28;20412;-70
2023/08/18 17:13:27;;;;;;;13.83;12.03;;;26.30;96.60;;;;;;10364472;28;20471;-72
2023/08/18 17:18:28;;;;;;;15.35;12.18;;;26.20;96.70;;;;;;10348482;28;20427;-69
2023/08/18 17:23:29;;;;;;;14.63;12.57;;;26.20;96.90;;;;;;10358022;28;20415;-69
2023/08/18 17:28:29;;;;;;;14.37;11.53;;;26.20;96.90;;;;;;10363083;28;20955;-68
2023/08/18 17:33:30;;;;;;;13.73;11.93;;;26.20;96.60;;;;;;10348876;28;20636;-67
2023/08/18 17:38:31;;;;;;;13.80;11.75;;;26.10;96.80;;;;;;10359954;28;20818;-66
2023/08/18 17:43:33;;;;;;;12.57;11.27;;;26.10;96.50;;;;;;10362553;28;20492;-66
2023/08/18 17:48:34;;;;;;;14.35;11.55;;;26.10;96.50;;;;;;10364924;28;20428;-67
2023/08/18 17:53:35;;;;;;;13.70;11.52;;;26.00;96.50;;;;;;10360506;28;20417;-67
2023/08/18 17:58:36;;;;;;;12.80;11.50;;;26.00;96.50;;;;;;10363735;28;20412;-65
2023/08/18 18:03:37;;;;;;;13.40;11.27;;;26.00;96.50;;;;;;10363622;28;20417;-66
2023/08/18 18:08:37;;;;;;;12.90;11.50;;;26.00;96.60;;;;;;10363582;28;20423;-67
2023/08/18 18:13:38;;;;;;;13.25;11.57;;;25.90;96.50;;;;;;10354527;28;20698;-66
2023/08/18 18:18:39;;;;;;;13.33;11.60;;;25.90;96.50;;;;;;10359457;28;20434;-69
2023/08/18 18:23:40;;;;;;;12.93;11.53;;;25.80;96.80;;;;;;10362569;28;20483;-71
2023/08/18 18:28:41;;;;;;;13.33;11.70;;;25.80;96.60;;;;;;10362605;28;20427;-69
2023/08/18 18:33:41;;;;;;;14.35;12.40;;;25.70;96.60;;;;;;10362053;28;20487;-69
2023/08/18 18:38:42;;;;;;;13.27;11.88;;;25.70;97.30;;;;;;10357011;28;20435;-69
2023/08/18 18:43:43;;;;;;;14.67;12.50;;;25.60;97.50;;;;;;10358586;28;20412;-69
2023/08/18 18:48:43;;;;;;;13.23;11.93;;;25.60;96.90;;;;;;10360845;28;20423;-68
2023/08/18 18:53:44;;;;;;;15.35;11.93;;;25.60;96.80;;;;;;10343838;28;20956;-69
2023/08/18 18:58:44;;;;;;;13.98;11.82;;;25.50;96.70;;;;;;10360204;28;20500;-69
2023/08/18 19:03:45;;;;;;;13.43;12.03;;;25.50;96.70;;;;;;10357141;28;20462;-68
2023/08/18 19:08:46;;;;;;;13.60;12.20;;;25.40;96.80;;;;;;10355290;28;20581;-69
2023/08/18 19:13:48;;;;;;;13.90;12.40;;;25.40;97.10;;;;;;10350540;28;20489;-67
2023/08/18 19:18:48;;;;;;;14.10;12.35;;;25.40;97.00;;;;;;10332754;28;21157;-68
2023/08/18 19:23:49;;;;;;;14.00;12.43;;;25.40;96.90;;;;;;10357821;28;20420;-67
2023/08/18 19:28:50;;;;;;;13.85;12.32;;;25.30;96.90;;;;;;10344352;28;20417;-66
2023/08/18 19:33:51;;;;;;;13.80;12.40;;;25.30;97.00;;;;;;10356096;28;20784;-68
2023/08/18 19:38:51;;;;;;;14.10;12.52;;;25.30;96.90;;;;;;10342598;28;20408;-67
2023/08/18 19:43:52;;;;;;;14.60;12.90;;;25.30;96.90;;;;;;10350249;28;20521;-67
2023/08/18 19:48:53;;;;;;;13.60;12.03;;;25.20;96.80;;;;;;10354773;28;20407;-68
2023/08/18 19:53:53;;;;;;;13.97;12.47;;;25.20;96.80;;;;;;10353016;28;20826;-67
2023/08/18 19:58:54;;;;;;;14.38;12.48;;;25.20;96.80;;;;;;10356908;28;20405;-67
2023/08/18 20:03:54;;;;;;;13.93;12.43;;;25.20;96.80;;;;;;10334963;28;20422;-67
2023/08/18 20:08:57;;;;;;;14.43;12.80;;;25.10;96.80;;;;;;10356757;28;20734;-67
2023/08/18 20:13:58;;;;;;;14.70;12.55;;;25.10;96.90;;;;;;10357479;28;20467;-68
2023/08/18 20:18:59;;;;;;;14.63;12.93;;;25.00;96.80;;;;;;10357214;28;20508;-67
2023/08/18 20:24:02;;;;;;;15.05;13.38;;;25.00;96.90;;;;;;10354287;28;20417;-67
2023/08/18 20:29:03;;;;;;;15.63;13.13;;;25.00;96.90;;;;;;10340543;28;20409;-66
2023/08/18 20:34:04;;;;;;;14.50;12.60;;;25.00;96.90;;;;;;10357659;28;20490;-67
2023/08/18 20:39:04;;;;;;;14.73;13.00;;;25.00;96.90;;;;;;10350498;28;20400;-67
2023/08/18 20:44:05;;;;;;;15.40;13.73;;;24.90;96.90;;;;;;10361501;28;20412;-67
2023/08/18 20:49:07;;;;;;;14.97;13.30;;;24.90;96.90;;;;;;10350067;28;20432;-67
2023/08/18 20:54:09;;;;;;;16.00;13.18;;;24.90;96.90;;;;;;10361879;28;20409;-67
2023/08/18 20:59:10;;;;;;;15.17;13.50;;;24.90;96.80;;;;;;10363982;28;20484;-67
2023/08/18 21:04:10;;;;;;;15.13;13.47;;;24.80;96.80;;;;;;10361764;28;20965;-66
2023/08/18 21:09:11;;;;;;;15.30;13.70;;;24.80;96.90;;;;;;10357934;28;20433;-67
2023/08/18 21:14:12;;;;;;;15.10;13.48;;;24.80;96.90;;;;;;10347889;28;20409;-67
2023/08/18 21:19:12;;;;;;;15.32;13.68;;;24.80;96.90;;;;;;10358302;28;20420;-66
2023/08/18 21:24:13;;;;;;;15.13;13.50;;;24.70;96.90;;;;;;10362038;28;20770;-66
2023/08/18 21:29:14;;;;;;;15.47;13.87;;;24.70;96.90;;;;;;10358205;28;20797;-66
2023/08/18 21:34:14;;;;;;;16.07;14.00;;;24.70;96.90;;;;;;10343769;28;20416;-66
2023/08/18 21:39:15;;;;;;;16.17;13.97;;;24.70;97.00;;;;;;10357235;28;20408;-66
2023/08/18 21:44:16;;;;;;;16.20;14.27;;;24.70;97.00;;;;;;10358530;28;20412;-65
2023/08/18 21:49:16;;;;;;;15.80;14.10;;;24.60;97.00;;;;;;10357241;28;20420;-66
2023/08/18 21:54:17;;;;;;;16.23;14.47;;;24.60;97.00;;;;;;10358465;28;20748;-64
2023/08/18 21:59:17;;;;;;;15.20;13.60;;;24.50;97.00;;;;;;10360059;28;20405;-65
2023/08/18 22:04:18;;;;;;;15.80;14.10;;;24.50;97.00;;;;;;10363691;28;20520;-66
2023/08/18 22:09:18;;;;;;;16.20;14.40;;;24.50;97.00;;;;;;10355683;28;20439;-63
2023/08/18 22:14:20;;;;;;;16.10;14.40;;;24.50;97.10;;;;;;10359521;28;20404;-65
2023/08/18 22:19:21;;;;;;;16.45;14.48;;;24.50;97.10;;;;;;10357328;28;21197;-66
2023/08/18 22:24:23;;;;;;;16.00;14.30;;;24.40;97.10;;;;;;10357380;28;20507;-66
2023/08/18 22:29:24;;;;;;;16.25;14.20;;;24.40;97.00;;;;;;10353135;28;20834;-65
2023/08/18 22:34:24;;;;;;;16.33;14.03;;;24.40;97.10;;;;;;10350123;28;20969;-66
2023/08/18 22:39:25;;;;;;;16.10;14.30;;;24.40;97.10;;;;;;10352657;28;20405;-65
2023/08/18 22:44:26;;;;;;;16.40;14.60;;;24.40;97.10;;;;;;10354120;28;20442;-65
2023/08/18 22:49:26;;;;;;;16.25;14.32;;;24.40;97.10;;;;;;10353820;28;20424;-66
2023/08/18 22:54:27;;;;;;;17.07;14.73;;;24.30;97.10;;;;;;10352329;28;20628;-64
2023/08/18 22:59:28;;;;;;;16.30;14.60;;;24.30;97.10;;;;;;10356662;28;20408;-65
2023/08/18 23:04:30;;;;;;;15.93;14.00;;;24.30;97.10;;;;;;10356838;28;20900;-66
2023/08/18 23:09:32;;;;;;;16.50;14.73;;;24.20;97.20;;;;;;10363060;28;20404;-65
2023/08/18 23:14:33;;;;;;;17.73;15.77;;;24.20;97.20;;;;;;10364344;28;20436;-65
2023/08/18 23:19:33;;;;;;;16.90;15.10;;;24.20;97.20;;;;;;10365018;28;20409;-65
2023/08/18 23:24:34;;;;;;;16.97;14.80;;;24.20;97.20;;;;;;10361578;28;20434;-65
2023/08/18 23:29:35;;;;;;;18.15;15.55;;;24.20;97.20;;;;;;10361596;28;20734;-66
2023/08/18 23:34:35;;;;;;;16.70;14.93;;;24.20;97.20;;;;;;10353286;28;20401;-65
2023/08/18 23:39:36;;;;;;;17.27;14.80;;;24.10;97.20;;;;;;10367376;28;20408;-65
2023/08/18 23:44:36;;;;;;;18.30;15.33;;;24.10;97.20;;;;;;10362393;28;20725;-66
2023/08/18 23:49:37;;;;;;;18.07;15.53;;;24.10;97.20;;;;;;10358046;28;20793;-65
2023/08/18 23:54:38;;;;;;;17.43;15.23;;;24.10;97.20;;;;;;10360362;28;20552;-66
2023/08/18 23:59:40;;;;;;;17.88;15.07;;;24.10;97.20;;;;;;10359480;28;20404;-65
